Flugplatz Uetersen/Heist

EDHE · Szlezwik-Holsztyn, Niemcy

4 października 2022

Czas Kod Pogoda Temp. Widoczność Sufit Wiatr METAR/SPECI
14:50
V
17 °C 10 km+ - 210° 210° 10 kt METAR EDHI 041250Z 21010KT 170V250 9999 FEW034 17/10 Q1019
14:20
V
17 °C 10 km+ - 220° 220° 10 kt METAR EDHI 041220Z 22010KT 180V240 9999 FEW028 17/10 Q1019
13:50
V
17 °C 10 km+ - 220° 220° 9 - 20 kt METAR EDHI 041150Z 22009G20KT 170V260 9999 FEW027 17/12 Q1019
13:20
V
17 °C 10 km+ - 190° 190° 7 kt METAR EDHI 041120Z 19007KT 150V230 9999 FEW023 17/12 Q1020
12:50
V
16 °C 10 km+ - 220° 220° 7 kt METAR EDHI 041050Z 22007KT CAVOK 16/12 Q1020
12:20
V
15 °C 10 km+ - 220° 220° 6 kt METAR EDHI 041020Z 22006KT 180V240 CAVOK 15/12 Q1020
11:50
V
14 °C 10 km+ - 200° 200° 6 kt METAR EDHI 040950Z 20006KT CAVOK 14/12 Q1020
11:20
V
14 °C 10 km+ - 210° 210° 5 kt METAR EDHI 040920Z 21005KT 180V260 CAVOK 14/13 Q1020
10:50
V
13 °C 10 km+ - 210° 210° 4 kt METAR EDHI 040850Z 21004KT 180V250 CAVOK 13/13 Q1020
10:20
V
13 °C 10 km+ - 230° 230° 5 kt METAR EDHI 040820Z 23005KT CAVOK 13/12 Q1020
09:50
V
12 °C 10 km+ - 240° 240° 6 kt METAR EDHI 040750Z 24006KT 9999 FEW044 12/12 Q1021
09:20
V
11 °C 10 km+ - 240° 240° 3 kt METAR EDHI 040720Z 24003KT 200V280 9999 FEW045 11/11 Q1020
08:50
V
10 °C 10 km+ - Var Var 2 kt METAR EDHI 040650Z VRB02KT CAVOK 10/10 Q1020
08:20
V
9 °C 10 km+ - Var 000° 0 kt METAR EDHI 040620Z 00000KT 9999 FEW041 09/09 Q1020
07:50
V
10 °C 10 km+ - Var Var 2 kt METAR EDHI 040550Z VRB02KT 9999 FEW042 10/10 Q1020
07:20
V
10 °C 10 km+ - 280° 280° 3 kt METAR EDHI 040520Z 28003KT 9999 FEW032 10/10 Q1020
06:50
V
10 °C 10 km+ - 260° 260° 3 kt METAR EDHI 040450Z 26003KT 9999 FEW032 10/10 Q1020
06:20
V
10 °C 10 km+ - 270° 270° 2 kt METAR EDHI 040420Z 27002KT 9999 FEW032 10/10 Q1021
05:50
V
10 °C 10 km+ - Var Var 2 kt METAR EDHI 040350Z VRB02KT CAVOK 10/09 Q1021
05:20
V
9 °C 10 km+ 14.000 ft 250° 250° 2 kt METAR EDHI 040320Z AUTO 25002KT 9999 // FEW120/// BKN140/// OVC200/// 09/09 Q1021
04:50
V
9 °C 10 km+ 14.000 ft Var Var 2 kt METAR EDHI 040250Z AUTO VRB02KT 9999 // FEW120/// OVC140/// 09/09 Q1021
04:20
V
9 °C 10 km+ 15.000 ft 260° 260° 4 kt METAR EDHI 040220Z AUTO 26004KT 9999 // OVC150/// 09/09 Q1021
03:50
V
9 °C 9 km 15.000 ft 230° 230° 3 kt METAR EDHI 040150Z AUTO 23003KT 9000 // OVC150/// 09/09 Q1021
03:20
V
9 °C 10 km+ 16.000 ft 240° 240° 4 kt METAR EDHI 040120Z AUTO 24004KT 9999 // FEW005/// BKN160/// OVC180/// 09/09 Q1022
02:50
L
9 °C 600 m 24.000 ft 240° 240° 3 kt METAR EDHI 040050Z AUTO 24003KT 1500 0600 R23/P2000N // FEW004/// SCT180/// BKN240/// 09/09 Q1022
02:20
V
9 °C 10 km+ 19.000 ft 230° 230° 3 kt METAR EDHI 040020Z AUTO 23003KT 9999 // BKN190/// BKN220/// 09/09 Q1022
01:50
L
9 °C 700 m 22.000 ft 220° 220° 4 kt METAR EDHI 032350Z AUTO 22004KT 7000 0700 R23/P2000N // BKN220/// 09/09 Q1022
01:20
L
9 °C 1,1 km 23.000 ft 230° 230° 3 kt METAR EDHI 032320Z AUTO 23003KT 9999 1100 R23/P2000N // FEW200/// BKN230/// 09/09 Q1022
00:50
I
10 °C 3,6 km 23.000 ft 220° 220° 3 kt METAR EDHI 032250Z AUTO 22003KT 9000 3600 // BKN230/// 10/09 Q1022
00:20
I
10 °C 1,6 km 23.000 ft 240° 240° 4 kt METAR EDHI 032220Z AUTO 24004KT 9999 1600 // FEW014/// BKN230/// 10/10 Q1023

3 października 2022

Czas Kod Pogoda Temp. Widoczność Sufit Wiatr METAR/SPECI
23:50
I
9 °C 4,3 km - 260° 260° 5 kt METAR EDHI 032150Z AUTO 26005KT 9999 4300 // FEW019/// 09/09 Q1023
23:20
V
11 °C 10 km+ - 250° 250° 5 kt METAR EDHI 032120Z AUTO 25005KT 9999 // SCT019/// 11/11 Q1023
22:50
V
10 °C 10 km+ - 240° 240° 5 kt METAR EDHI 032050Z AUTO 24005KT 9999 // NCD 10/10 Q1023
22:20
V
11 °C 10 km+ - 250° 250° 4 kt METAR EDHI 032020Z AUTO 25004KT 9999 // FEW019/// 11/11 Q1023
21:50
V
12 °C 10 km+ - 270° 270° 5 kt METAR EDHI 031950Z AUTO 27005KT 9999 // FEW020/// 12/12 Q1023
21:20
V
12 °C 10 km+ - 270° 270° 6 kt METAR EDHI 031920Z AUTO 27006KT 9999 // NCD 12/12 Q1023
20:50
V
13 °C 10 km+ - 280° 280° 7 kt METAR EDHI 031850Z AUTO 28007KT 9999 // FEW019/// 13/12 Q1023
20:20
V
13 °C 10 km+ - 270° 270° 6 kt METAR EDHI 031820Z AUTO 27006KT 9999 // FEW019/// 13/13 Q1023
19:50
V
13 °C 10 km+ - 290° 290° 8 kt METAR EDHI 031750Z AUTO 29008KT 9999 // NCD 13/13 Q1023
19:20
V
14 °C 10 km+ - 290° 290° 11 kt METAR EDHI 031720Z AUTO 29011KT 9999 // FEW018/// 14/13 Q1023
18:50
V
14 °C 10 km+ - 290° 290° 9 kt METAR EDHI 031650Z AUTO 29009KT 9999 // FEW017/// SCT020/// 14/14 Q1023
18:20
V
15 °C 10 km+ 6.900 ft 290° 290° 10 kt METAR EDHI 031620Z AUTO 29010KT 9999 // FEW018/// BKN069/// 15/13 Q1023
17:50
V
15 °C 10 km+ 7.100 ft 300° 300° 12 kt METAR EDHI 031550Z AUTO 30012KT 9999 // FEW020/// OVC071/// 15/13 Q1023
17:20
V
15 °C 10 km+ 6.500 ft 290° 290° 10 kt METAR EDHI 031520Z AUTO 29010KT 9999 // FEW021/// OVC065/// 15/13 Q1023
16:50
V
15 °C 10 km+ 6.000 ft 290° 290° 11 kt METAR EDHI 031450Z AUTO 29011KT 9999 // FEW020/// BKN060/// OVC069/// 15/14 Q1023
16:20
V
15 °C 10 km+ 5.100 ft 300° 300° 13 kt METAR EDHI 031420Z AUTO 30013KT 9999 // SCT019/// BKN051/// BKN058/// 15/13 Q1023
15:50
V
16 °C 10 km+ 7.100 ft 290° 290° 11 kt METAR EDHI 031350Z AUTO 29011KT 9999 // FEW021/// BKN071/// 16/14 Q1023
15:20
V
16 °C 10 km+ 6.900 ft 290° 290° 12 kt METAR EDHI 031320Z AUTO 29012KT 270V330 9999 // FEW022/// OVC069/// 16/13 Q1023
14:50
M
16 °C 10 km+ 2.800 ft 290° 290° 14 kt METAR EDHI 031250Z AUTO 29014KT 9999 // FEW021/// BKN028/// OVC071/// 16/12 Q1023
14:20
V
16 °C 10 km+ 5.400 ft 290° 290° 12 kt METAR EDHI 031220Z AUTO 29012KT 9999 // FEW029/// BKN054/// OVC067/// 16/13 Q1023
13:50
V
15 °C 10 km+ 4.800 ft 300° 300° 12 kt METAR EDHI 031150Z AUTO 30012KT 9999 // FEW019/// SCT023/// OVC048/// 15/13 Q1023
13:20
V
16 °C 10 km+ 6.900 ft 290° 290° 14 kt METAR EDHI 031120Z AUTO 29014KT 9999 // FEW019/// BKN069/// BKN082/// 16/14 Q1023
12:50
V
15 °C 10 km+ 7.800 ft 300° 300° 11 kt METAR EDHI 031050Z AUTO 30011KT 270V340 9999 // FEW020/// SCT025/// BKN078/// 15/12 Q1023
12:20
M
15 °C 9 km 2.100 ft 280° 280° 10 kt METAR EDHI 031020Z AUTO 28010KT 260V330 9000 // FEW018/// BKN021/// BKN034/// 15/14 Q1023
11:50
M
15 °C 10 km+ 2.100 ft 280° 280° 12 kt METAR EDHI 030950Z AUTO 28012KT 9999 // SCT018/// BKN021/// 15/13 Q1023
11:20
V
14 °C 10 km+ 4.300 ft 280° 280° 10 kt METAR EDHI 030920Z AUTO 28010KT 9999 // FEW017/// SCT033/// BKN043/// 14/13 Q1023
10:50
V
14 °C 10 km+ 4.700 ft 280° 280° 8 kt METAR EDHI 030850Z AUTO 28008KT 9999 // FEW023/// SCT027/// BKN047/// 14/13 Q1023
10:20
V
13 °C 10 km+ - 270° 270° 8 kt METAR EDHI 030820Z AUTO 27008KT 9999 // FEW027/// SCT043/// 13/13 Q1023
09:50
V
13 °C 10 km+ - 270° 270° 9 kt METAR EDHI 030750Z AUTO 27009KT 9999 // FEW027/// 13/13 Q1023
09:20
V
12 °C 10 km+ 3.800 ft 270° 270° 9 kt METAR EDHI 030720Z AUTO 27009KT 9999 // BKN038/// BKN056/// BKN066/// 12/12 Q1023
08:50
V
11 °C 10 km+ 3.700 ft 260° 260° 7 kt METAR EDHI 030650Z AUTO 26007KT 230V290 9999 // FEW021/// BKN037/// 11/11 Q1023
08:20
V
10 °C 10 km+ - 250° 250° 5 kt METAR EDHI 030620Z AUTO 25005KT 9999 // NCD 10/10 Q1022
07:50
V
9 °C 10 km+ - 260° 260° 6 kt METAR EDHI 030550Z AUTO 26006KT 9999 // NCD 09/09 Q1022
07:20
V
9 °C 10 km+ - 260° 260° 7 kt METAR EDHI 030520Z AUTO 26007KT 9999 // FEW006/// 09/09 Q1022
06:50
I
8 °C 3,6 km - 250° 250° 4 kt METAR EDHI 030450Z AUTO 25004KT 220V280 9999 3600 // NCD 08/08 Q1022
06:20
V
8 °C 10 km+ - 230° 230° 5 kt METAR EDHI 030420Z AUTO 23005KT 9999 // NCD 08/08 Q1022
05:50
V
10 °C 10 km+ - 250° 250° 6 kt METAR EDHI 030350Z AUTO 25006KT 9999 // NCD 10/10 Q1021
05:20
V
10 °C 10 km+ - 270° 270° 6 kt METAR EDHI 030320Z AUTO 27006KT 9999 // NCD 10/10 Q1021
04:50
V
10 °C 10 km+ - 260° 260° 7 kt METAR EDHI 030250Z AUTO 26007KT 9999 // FEW024/// 10/10 Q1021
04:20
V
10 °C 10 km+ 4.200 ft 270° 270° 8 kt METAR EDHI 030220Z AUTO 27008KT 9999 // FEW025/// BKN042/// 10/10 Q1021
03:50
V
11 °C 10 km+ - 270° 270° 8 kt METAR EDHI 030150Z AUTO 27008KT 9999 // FEW020/// SCT034/// 11/11 Q1021
03:20
V
11 °C 10 km+ 4.400 ft 270° 270° 7 kt METAR EDHI 030120Z AUTO 27007KT 9999 // FEW038/// BKN044/// BKN050/// 11/11 Q1020
02:50
V
11 °C 10 km+ 4.800 ft 270° 270° 8 kt METAR EDHI 030050Z AUTO 27008KT 9999 // FEW038/// BKN048/// 11/11 Q1020
02:20
V
11 °C 10 km+ - 270° 270° 8 kt METAR EDHI 030020Z AUTO 27008KT 9999 // FEW007/// 11/10 Q1020
01:50
M
11 °C 10 km+ 2.700 ft 280° 280° 7 kt METAR EDHI 022350Z AUTO 28007KT 9999 // FEW019/// SCT023/// BKN027/// 11/11 Q1020
01:20
V
11 °C 10 km+ - 270° 270° 7 kt METAR EDHI 022320Z AUTO 27007KT 9999 // FEW023/// SCT032/// 11/11 Q1020
00:50
V
11 °C 10 km+ 5.700 ft 280° 280° 8 kt METAR EDHI 022250Z AUTO 28008KT 9999 // FEW021/// SCT029/// BKN057/// 11/11 Q1019
00:20
V
11 °C 10 km+ - 260° 260° 7 kt METAR EDHI 022220Z AUTO 26007KT 9999 // FEW021/// SCT038/// 11/11 Q1019

2 października 2022

Czas Kod Pogoda Temp. Widoczność Sufit Wiatr METAR/SPECI
23:50
V
11 °C 10 km+ 4.900 ft 270° 270° 8 kt METAR EDHI 022150Z AUTO 27008KT 9999 // FEW025/// BKN049/// 11/11 Q1019
23:20
V
12 °C 10 km+ - 270° 270° 9 kt METAR EDHI 022120Z AUTO 27009KT 9999 // FEW022/// SCT026/// 12/12 Q1019
22:50
V
12 °C 10 km+ - 270° 270° 8 kt METAR EDHI 022050Z AUTO 27008KT 9999 // FEW024/// 12/12 Q1018
22:20
V
12 °C 10 km+ 5.400 ft 270° 270° 8 kt METAR EDHI 022020Z AUTO 27008KT 9999 // FEW020/// SCT044/// BKN054/// 12/12 Q1018
21:50
V
12 °C 10 km+ 4.200 ft 270° 270° 8 kt METAR EDHI 021950Z AUTO 27008KT 9999 // SCT022/// SCT028/// BKN042/// 12/12 Q1018
21:20
V
11 °C 10 km+ - 260° 260° 6 kt METAR EDHI 021920Z AUTO 26006KT 210V300 9999 // SCT025/// SCT078/// 11/11 Q1017
20:50
V
12 °C 10 km+ - 270° 270° 7 kt METAR EDHI 021850Z AUTO 27007KT 9999 // FEW029/// 12/12 Q1017
20:20
V
13 °C 10 km+ - 280° 280° 7 kt METAR EDHI 021820Z AUTO 28007KT 9999 // NCD 13/12 Q1017
19:50
V
13 °C 10 km+ - 290° 290° 8 kt METAR EDHI 021750Z AUTO 29008KT 9999 // NCD 13/12 Q1016
19:20
V
14 °C 10 km+ - 290° 290° 11 kt METAR EDHI 021720Z AUTO 29011KT 9999 // NCD 14/11 Q1016
18:50
V
14 °C 10 km+ - 290° 290° 11 kt METAR EDHI 021650Z AUTO 29011KT 9999 // FEW025/// 14/11 Q1015
18:20
V
14 °C 10 km+ - 290° 290° 12 kt METAR EDHI 021620Z AUTO 29012KT 9999 // FEW025/// 14/11 Q1015
17:50
V
15 °C 10 km+ - 310° 310° 13 kt METAR EDHI 021550Z AUTO 31013KT 9999 // FEW029/// 15/10 Q1015
17:20
V
15 °C 10 km+ - 310° 310° 15 kt METAR EDHI 021520Z AUTO 31015KT 9999 // FEW030/// 15/10 Q1014
16:50
V
15 °C 10 km+ - 290° 290° 13 kt METAR EDHI 021450Z AUTO 29013KT 260V320 9999 // FEW034/// 15/11 Q1014
16:20
V
15 °C 10 km+ - 290° 290° 13 kt METAR EDHI 021420Z AUTO 29013KT 9999 // FEW029/// SCT059/// 15/11 Q1014
15:50
V
16 °C 10 km+ - 290° 290° 14 kt METAR EDHI 021350Z AUTO 29014KT 9999 // FEW029/// 16/11 Q1014
15:20
V
15 °C 10 km+ - 280° 280° 13 kt METAR EDHI 021320Z AUTO 28013KT 9999 // FEW034/// 15/12 Q1013
14:50
V
15 °C 10 km+ - 280° 280° 10 kt METAR EDHI 021250Z AUTO 28010KT 9999 // FEW042/// 15/12 Q1013
Starsze dane

My i osoby trzecie śledzimy twoje zachowanie w internecie na naszej stronie za pomocą plików cookie. Jeśli kontynuujesz, zakładamy, że zgadzasz się z naszą polityką plików cookie. Dowiedz się więcej